sensor_id;sensor_type;location;lat;lon;timestamp;temperature;humidity
7936;DHT22;4013;49.744;8.118;2022-07-29T00:01:37;20.00;99.90
7936;DHT22;4013;49.744;8.118;2022-07-29T00:04:04;19.70;99.90
7936;DHT22;4013;49.744;8.118;2022-07-29T00:06:31;19.60;99.90
7936;DHT22;4013;49.744;8.118;2022-07-29T00:08:58;19.50;99.90
7936;DHT22;4013;49.744;8.118;2022-07-29T00:11:25;19.60;99.90
7936;DHT22;4013;49.744;8.118;2022-07-29T00:13:52;19.60;99.90
7936;DHT22;4013;49.744;8.118;2022-07-29T00:16:20;19.60;99.90
7936;DHT22;4013;49.744;8.118;2022-07-29T00:18:47;19.70;99.90
7936;DHT22;4013;49.744;8.118;2022-07-29T00:21:14;19.70;99.90
7936;DHT22;4013;49.744;8.118;2022-07-29T00:23:41;19.70;99.90
7936;DHT22;4013;49.744;8.118;2022-07-29T00:26:08;19.60;99.90
7936;DHT22;4013;49.744;8.118;2022-07-29T00:28:35;19.50;99.90
7936;DHT22;4013;49.744;8.118;2022-07-29T00:31:02;19.50;99.90
7936;DHT22;4013;49.744;8.118;2022-07-29T00:33:30;19.50;99.90
7936;DHT22;4013;49.744;8.118;2022-07-29T00:35:57;19.50;99.90
7936;DHT22;4013;49.744;8.118;2022-07-29T00:38:23;19.50;99.90
7936;DHT22;4013;49.744;8.118;2022-07-29T00:40:50;19.50;99.90
7936;DHT22;4013;49.744;8.118;2022-07-29T00:43:17;19.50;99.90
7936;DHT22;4013;49.744;8.118;2022-07-29T00:45:44;19.50;99.90
7936;DHT22;4013;49.744;8.118;2022-07-29T00:48:11;19.60;99.90
7936;DHT22;4013;49.744;8.118;2022-07-29T00:50:39;19.50;99.90
7936;DHT22;4013;49.744;8.118;2022-07-29T00:53:07;19.40;99.90
7936;DHT22;4013;49.744;8.118;2022-07-29T00:55:34;19.50;99.90
7936;DHT22;4013;49.744;8.118;2022-07-29T00:58:02;19.40;99.90
7936;DHT22;4013;49.744;8.118;2022-07-29T01:00:29;19.20;99.90
7936;DHT22;4013;49.744;8.118;2022-07-29T01:02:56;19.10;99.90
7936;DHT22;4013;49.744;8.118;2022-07-29T01:05:25;19.20;99.90
7936;DHT22;4013;49.744;8.118;2022-07-29T01:07:54;19.10;99.90
7936;DHT22;4013;49.744;8.118;2022-07-29T01:10:23;19.10;99.90
7936;DHT22;4013;49.744;8.118;2022-07-29T01:12:52;19.20;99.90
7936;DHT22;4013;49.744;8.118;2022-07-29T01:15:20;19.20;99.90
7936;DHT22;4013;49.744;8.118;2022-07-29T01:17:54;19.00;99.90
7936;DHT22;4013;49.744;8.118;2022-07-29T01:20:26;19.20;99.90
7936;DHT22;4013;49.744;8.118;2022-07-29T01:23:19;19.20;99.90
7936;DHT22;4013;49.744;8.118;2022-07-29T01:26:08;19.10;99.90
7936;DHT22;4013;49.744;8.118;2022-07-29T01:28:49;19.10;99.90
7936;DHT22;4013;49.744;8.118;2022-07-29T01:31:22;19.10;99.90
7936;DHT22;4013;49.744;8.118;2022-07-29T01:33:58;19.00;99.90
7936;DHT22;4013;49.744;8.118;2022-07-29T01:36:32;18.90;99.90
7936;DHT22;4013;49.744;8.118;2022-07-29T01:39:04;18.90;99.90
7936;DHT22;4013;49.744;8.118;2022-07-29T01:41:34;18.90;99.90
7936;DHT22;4013;49.744;8.118;2022-07-29T01:44:11;18.90;99.90
7936;DHT22;4013;49.744;8.118;2022-07-29T01:46:44;19.00;99.90
7936;DHT22;4013;49.744;8.118;2022-07-29T01:49:15;19.00;99.90
7936;DHT22;4013;49.744;8.118;2022-07-29T01:51:45;18.90;99.90
7936;DHT22;4013;49.744;8.118;2022-07-29T01:54:16;18.80;99.90
7936;DHT22;4013;49.744;8.118;2022-07-29T01:56:47;18.70;99.90
7936;DHT22;4013;49.744;8.118;2022-07-29T01:59:17;18.60;99.90
7936;DHT22;4013;49.744;8.118;2022-07-29T02:01:47;18.50;99.90
7936;DHT22;4013;49.744;8.118;2022-07-29T02:04:16;18.50;99.90
7936;DHT22;4013;49.744;8.118;2022-07-29T02:06:44;18.60;99.90
7936;DHT22;4013;49.744;8.118;2022-07-29T02:09:13;18.60;99.90
7936;DHT22;4013;49.744;8.118;2022-07-29T02:11:42;18.50;99.90
7936;DHT22;4013;49.744;8.118;2022-07-29T02:14:15;18.60;99.90
7936;DHT22;4013;49.744;8.118;2022-07-29T02:16:45;18.60;99.90
7936;DHT22;4013;49.744;8.118;2022-07-29T02:19:14;18.70;99.90
7936;DHT22;4013;49.744;8.118;2022-07-29T02:21:44;18.70;99.90
7936;DHT22;4013;49.744;8.118;2022-07-29T02:24:12;18.70;99.90
7936;DHT22;4013;49.744;8.118;2022-07-29T02:26:40;18.60;99.90
7936;DHT22;4013;49.744;8.118;2022-07-29T02:29:09;18.50;99.90
7936;DHT22;4013;49.744;8.118;2022-07-29T02:31:38;18.40;99.90
7936;DHT22;4013;49.744;8.118;2022-07-29T02:34:08;18.40;99.90
7936;DHT22;4013;49.744;8.118;2022-07-29T02:36:36;18.40;99.90
7936;DHT22;4013;49.744;8.118;2022-07-29T02:39:04;18.30;99.90
7936;DHT22;4013;49.744;8.118;2022-07-29T02:41:38;18.40;99.90
7936;DHT22;4013;49.744;8.118;2022-07-29T02:44:10;18.30;99.90
7936;DHT22;4013;49.744;8.118;2022-07-29T02:46:49;18.30;99.90
7936;DHT22;4013;49.744;8.118;2022-07-29T02:49:22;18.40;99.90
7936;DHT22;4013;49.744;8.118;2022-07-29T02:51:55;18.30;99.90
7936;DHT22;4013;49.744;8.118;2022-07-29T02:54:29;18.30;99.90
7936;DHT22;4013;49.744;8.118;2022-07-29T02:56:59;18.30;99.90
7936;DHT22;4013;49.744;8.118;2022-07-29T02:59:27;18.20;99.90
7936;DHT22;4013;49.744;8.118;2022-07-29T03:01:59;18.10;99.90
7936;DHT22;4013;49.744;8.118;2022-07-29T03:04:27;18.10;99.90
7936;DHT22;4013;49.744;8.118;2022-07-29T03:06:58;18.10;99.90
7936;DHT22;4013;49.744;8.118;2022-07-29T03:09:26;18.20;99.90
7936;DHT22;4013;49.744;8.118;2022-07-29T03:11:55;18.10;99.90
7936;DHT22;4013;49.744;8.118;2022-07-29T03:14:23;18.10;99.90
7936;DHT22;4013;49.744;8.118;2022-07-29T03:16:51;18.00;99.90
7936;DHT22;4013;49.744;8.118;2022-07-29T03:19:20;18.10;99.90
7936;DHT22;4013;49.744;8.118;2022-07-29T03:21:48;18.00;99.90
7936;DHT22;4013;49.744;8.118;2022-07-29T03:24:29;18.00;99.90
7936;DHT22;4013;49.744;8.118;2022-07-29T03:26:56;17.80;99.90
7936;DHT22;4013;49.744;8.118;2022-07-29T03:29:23;17.70;99.90
7936;DHT22;4013;49.744;8.118;2022-07-29T03:31:51;17.60;99.90
7936;DHT22;4013;49.744;8.118;2022-07-29T03:34:17;17.50;99.90
7936;DHT22;4013;49.744;8.118;2022-07-29T03:36:46;17.40;99.90
7936;DHT22;4013;49.744;8.118;2022-07-29T03:39:16;17.40;99.90
7936;DHT22;4013;49.744;8.118;2022-07-29T03:41:45;17.40;99.90
7936;DHT22;4013;49.744;8.118;2022-07-29T03:44:14;17.30;99.90
7936;DHT22;4013;49.744;8.118;2022-07-29T03:46:43;17.30;99.90
7936;DHT22;4013;49.744;8.118;2022-07-29T03:49:11;17.20;99.90
7936;DHT22;4013;49.744;8.118;2022-07-29T03:51:39;17.20;99.90
7936;DHT22;4013;49.744;8.118;2022-07-29T03:54:08;17.20;99.90
7936;DHT22;4013;49.744;8.118;2022-07-29T03:56:38;17.10;99.90
7936;DHT22;4013;49.744;8.118;2022-07-29T03:59:07;17.10;99.90
7936;DHT22;4013;49.744;8.118;2022-07-29T04:01:34;17.10;99.90
7936;DHT22;4013;49.744;8.118;2022-07-29T04:04:02;17.10;99.90
7936;DHT22;4013;49.744;8.118;2022-07-29T04:06:38;17.00;99.90
7936;DHT22;4013;49.744;8.118;2022-07-29T04:09:05;17.10;99.90
7936;DHT22;4013;49.744;8.118;2022-07-29T04:11:34;17.00;99.90
7936;DHT22;4013;49.744;8.118;2022-07-29T04:14:02;17.00;99.90
7936;DHT22;4013;49.744;8.118;2022-07-29T04:16:29;17.00;99.90
7936;DHT22;4013;49.744;8.118;2022-07-29T04:18:56;16.90;99.90
7936;DHT22;4013;49.744;8.118;2022-07-29T04:21:23;17.00;99.90
7936;DHT22;4013;49.744;8.118;2022-07-29T04:23:50;16.90;99.90
7936;DHT22;4013;49.744;8.118;2022-07-29T04:26:17;16.80;99.90
7936;DHT22;4013;49.744;8.118;2022-07-29T04:28:46;16.90;99.90
7936;DHT22;4013;49.744;8.118;2022-07-29T04:31:13;16.90;99.90
7936;DHT22;4013;49.744;8.118;2022-07-29T04:33:40;17.00;99.90
7936;DHT22;4013;49.744;8.118;2022-07-29T04:36:07;17.00;99.90
7936;DHT22;4013;49.744;8.118;2022-07-29T04:38:36;17.10;99.90
7936;DHT22;4013;49.744;8.118;2022-07-29T04:41:03;17.30;99.90
7936;DHT22;4013;49.744;8.118;2022-07-29T04:43:30;17.30;99.90
7936;DHT22;4013;49.744;8.118;2022-07-29T04:45:58;17.30;99.90
7936;DHT22;4013;49.744;8.118;2022-07-29T04:48:25;17.60;99.90
7936;DHT22;4013;49.744;8.118;2022-07-29T04:50:52;17.70;99.90
7936;DHT22;4013;49.744;8.118;2022-07-29T04:53:19;17.80;99.90
7936;DHT22;4013;49.744;8.118;2022-07-29T04:55:46;17.90;99.90
7936;DHT22;4013;49.744;8.118;2022-07-29T04:58:13;18.10;99.90
7936;DHT22;4013;49.744;8.118;2022-07-29T05:00:40;18.10;99.90
7936;DHT22;4013;49.744;8.118;2022-07-29T05:03:08;18.20;99.90
7936;DHT22;4013;49.744;8.118;2022-07-29T05:05:35;18.20;99.90
7936;DHT22;4013;49.744;8.118;2022-07-29T05:08:03;18.20;99.90
7936;DHT22;4013;49.744;8.118;2022-07-29T05:10:30;18.40;99.90
7936;DHT22;4013;49.744;8.118;2022-07-29T05:12:57;18.40;99.90
7936;DHT22;4013;49.744;8.118;2022-07-29T05:15:24;18.40;99.90
7936;DHT22;4013;49.744;8.118;2022-07-29T05:17:50;18.40;99.90
7936;DHT22;4013;49.744;8.118;2022-07-29T05:20:19;18.30;99.90
7936;DHT22;4013;49.744;8.118;2022-07-29T05:22:51;18.30;99.90
7936;DHT22;4013;49.744;8.118;2022-07-29T05:25:18;18.40;99.90
7936;DHT22;4013;49.744;8.118;2022-07-29T05:27:45;18.50;99.90
7936;DHT22;4013;49.744;8.118;2022-07-29T05:30:12;18.60;99.90
7936;DHT22;4013;49.744;8.118;2022-07-29T05:32:39;18.70;99.90
7936;DHT22;4013;49.744;8.118;2022-07-29T05:35:07;18.80;99.90
7936;DHT22;4013;49.744;8.118;2022-07-29T05:37:35;18.90;99.90
7936;DHT22;4013;49.744;8.118;2022-07-29T05:40:03;19.10;99.90
7936;DHT22;4013;49.744;8.118;2022-07-29T05:42:30;19.20;99.90
7936;DHT22;4013;49.744;8.118;2022-07-29T05:44:57;19.30;99.90
7936;DHT22;4013;49.744;8.118;2022-07-29T05:47:24;19.30;99.90
7936;DHT22;4013;49.744;8.118;2022-07-29T05:49:51;19.30;99.90
7936;DHT22;4013;49.744;8.118;2022-07-29T05:52:18;19.30;99.90
7936;DHT22;4013;49.744;8.118;2022-07-29T05:54:47;19.40;99.90
7936;DHT22;4013;49.744;8.118;2022-07-29T05:57:17;19.50;99.90
7936;DHT22;4013;49.744;8.118;2022-07-29T05:59:44;19.60;99.90
7936;DHT22;4013;49.744;8.118;2022-07-29T06:02:11;19.80;99.90
7936;DHT22;4013;49.744;8.118;2022-07-29T06:04:37;19.80;99.90
7936;DHT22;4013;49.744;8.118;2022-07-29T06:07:04;19.80;99.90
7936;DHT22;4013;49.744;8.118;2022-07-29T06:09:31;19.90;99.90
7936;DHT22;4013;49.744;8.118;2022-07-29T06:12:00;20.00;99.90
7936;DHT22;4013;49.744;8.118;2022-07-29T06:14:27;20.20;99.90
7936;DHT22;4013;49.744;8.118;2022-07-29T06:16:55;20.30;99.90
7936;DHT22;4013;49.744;8.118;2022-07-29T06:19:22;20.30;99.90
7936;DHT22;4013;49.744;8.118;2022-07-29T06:21:49;20.40;99.90
7936;DHT22;4013;49.744;8.118;2022-07-29T06:24:16;20.50;99.90
7936;DHT22;4013;49.744;8.118;2022-07-29T06:26:43;20.50;99.90
7936;DHT22;4013;49.744;8.118;2022-07-29T06:29:11;20.40;99.90
7936;DHT22;4013;49.744;8.118;2022-07-29T06:31:38;20.50;99.90
7936;DHT22;4013;49.744;8.118;2022-07-29T06:34:06;20.60;99.90
7936;DHT22;4013;49.744;8.118;2022-07-29T06:36:34;20.80;99.90
7936;DHT22;4013;49.744;8.118;2022-07-29T06:39:04;20.90;99.90
7936;DHT22;4013;49.744;8.118;2022-07-29T06:41:31;20.90;99.90
7936;DHT22;4013;49.744;8.118;2022-07-29T06:43:58;21.10;99.90
7936;DHT22;4013;49.744;8.118;2022-07-29T06:46:26;21.40;99.90
7936;DHT22;4013;49.744;8.118;2022-07-29T06:48:53;21.40;99.90
7936;DHT22;4013;49.744;8.118;2022-07-29T06:51:20;21.70;99.90
7936;DHT22;4013;49.744;8.118;2022-07-29T06:53:47;21.80;99.90
7936;DHT22;4013;49.744;8.118;2022-07-29T06:56:14;21.80;99.90
7936;DHT22;4013;49.744;8.118;2022-07-29T06:58:41;21.70;99.90
7936;DHT22;4013;49.744;8.118;2022-07-29T07:01:08;21.80;99.90
7936;DHT22;4013;49.744;8.118;2022-07-29T07:03:37;21.80;99.90
7936;DHT22;4013;49.744;8.118;2022-07-29T07:06:04;21.90;99.90
7936;DHT22;4013;49.744;8.118;2022-07-29T07:08:31;22.00;99.90
7936;DHT22;4013;49.744;8.118;2022-07-29T07:10:58;22.00;99.90
7936;DHT22;4013;49.744;8.118;2022-07-29T07:13:25;22.00;99.90
7936;DHT22;4013;49.744;8.118;2022-07-29T07:15:52;21.90;99.90
7936;DHT22;4013;49.744;8.118;2022-07-29T07:18:19;22.00;99.90
7936;DHT22;4013;49.744;8.118;2022-07-29T07:20:47;22.20;99.90
7936;DHT22;4013;49.744;8.118;2022-07-29T07:23:14;22.40;99.90
7936;DHT22;4013;49.744;8.118;2022-07-29T07:25:41;22.50;99.90
7936;DHT22;4013;49.744;8.118;2022-07-29T07:28:08;22.40;99.90
7936;DHT22;4013;49.744;8.118;2022-07-29T07:30:35;22.50;99.90
7936;DHT22;4013;49.744;8.118;2022-07-29T07:33:02;22.60;99.90
7936;DHT22;4013;49.744;8.118;2022-07-29T07:35:30;22.70;99.90
7936;DHT22;4013;49.744;8.118;2022-07-29T07:37:58;22.70;99.90
7936;DHT22;4013;49.744;8.118;2022-07-29T07:40:26;22.70;99.90
7936;DHT22;4013;49.744;8.118;2022-07-29T07:42:53;22.80;99.90
7936;DHT22;4013;49.744;8.118;2022-07-29T07:45:20;22.90;99.90
7936;DHT22;4013;49.744;8.118;2022-07-29T07:47:46;23.00;99.90
7936;DHT22;4013;49.744;8.118;2022-07-29T07:50:13;23.10;99.90
7936;DHT22;4013;49.744;8.118;2022-07-29T07:52:48;23.00;99.90
7936;DHT22;4013;49.744;8.118;2022-07-29T07:55:17;23.00;99.90
7936;DHT22;4013;49.744;8.118;2022-07-29T07:57:44;23.10;99.90
7936;DHT22;4013;49.744;8.118;2022-07-29T08:00:12;23.20;99.90
7936;DHT22;4013;49.744;8.118;2022-07-29T08:02:40;23.40;99.90
7936;DHT22;4013;49.744;8.118;2022-07-29T08:05:08;23.70;99.90
7936;DHT22;4013;49.744;8.118;2022-07-29T08:07:35;23.60;99.90
7936;DHT22;4013;49.744;8.118;2022-07-29T08:10:03;23.60;99.90
7936;DHT22;4013;49.744;8.118;2022-07-29T08:12:32;23.70;99.90
7936;DHT22;4013;49.744;8.118;2022-07-29T08:14:59;23.40;99.90
7936;DHT22;4013;49.744;8.118;2022-07-29T08:17:26;23.40;99.90
7936;DHT22;4013;49.744;8.118;2022-07-29T08:19:53;23.50;99.90
7936;DHT22;4013;49.744;8.118;2022-07-29T08:22:20;23.60;99.90
7936;DHT22;4013;49.744;8.118;2022-07-29T08:24:47;23.50;99.90
7936;DHT22;4013;49.744;8.118;2022-07-29T08:27:19;23.40;99.90
7936;DHT22;4013;49.744;8.118;2022-07-29T08:29:48;23.20;99.90
7936;DHT22;4013;49.744;8.118;2022-07-29T08:32:15;23.10;99.90
7936;DHT22;4013;49.744;8.118;2022-07-29T08:34:42;23.10;99.90
7936;DHT22;4013;49.744;8.118;2022-07-29T08:37:11;23.10;99.90
7936;DHT22;4013;49.744;8.118;2022-07-29T08:39:38;23.10;99.90
7936;DHT22;4013;49.744;8.118;2022-07-29T08:42:06;23.20;99.90
7936;DHT22;4013;49.744;8.118;2022-07-29T08:44:33;23.20;99.90
7936;DHT22;4013;49.744;8.118;2022-07-29T08:47:02;23.40;99.90
7936;DHT22;4013;49.744;8.118;2022-07-29T08:49:30;23.50;99.90
7936;DHT22;4013;49.744;8.118;2022-07-29T08:52:00;23.50;99.90
7936;DHT22;4013;49.744;8.118;2022-07-29T08:54:27;23.50;99.90
7936;DHT22;4013;49.744;8.118;2022-07-29T08:56:55;23.50;99.90
7936;DHT22;4013;49.744;8.118;2022-07-29T08:59:23;23.70;99.90
7936;DHT22;4013;49.744;8.118;2022-07-29T09:01:53;23.80;99.90
7936;DHT22;4013;49.744;8.118;2022-07-29T09:04:22;23.90;99.90
7936;DHT22;4013;49.744;8.118;2022-07-29T09:06:52;23.90;99.90
7936;DHT22;4013;49.744;8.118;2022-07-29T09:09:20;24.00;99.90
7936;DHT22;4013;49.744;8.118;2022-07-29T09:11:48;24.00;99.90
7936;DHT22;4013;49.744;8.118;2022-07-29T09:14:15;23.90;99.90
7936;DHT22;4013;49.744;8.118;2022-07-29T09:16:51;23.90;99.90
7936;DHT22;4013;49.744;8.118;2022-07-29T09:19:24;23.80;99.90
7936;DHT22;4013;49.744;8.118;2022-07-29T09:21:52;23.80;99.90
7936;DHT22;4013;49.744;8.118;2022-07-29T09:24:28;23.90;99.90
7936;DHT22;4013;49.744;8.118;2022-07-29T09:27:02;24.10;99.90
7936;DHT22;4013;49.744;8.118;2022-07-29T09:29:29;24.30;99.90
7936;DHT22;4013;49.744;8.118;2022-07-29T09:31:57;24.30;99.90
7936;DHT22;4013;49.744;8.118;2022-07-29T09:34:26;24.40;99.90
7936;DHT22;4013;49.744;8.118;2022-07-29T09:36:54;24.50;99.90
7936;DHT22;4013;49.744;8.118;2022-07-29T09:39:29;24.70;99.90
7936;DHT22;4013;49.744;8.118;2022-07-29T09:41:58;25.00;99.90
7936;DHT22;4013;49.744;8.118;2022-07-29T09:44:25;25.10;99.90
7936;DHT22;4013;49.744;8.118;2022-07-29T09:46:54;25.10;99.90
7936;DHT22;4013;49.744;8.118;2022-07-29T09:49:21;25.00;99.90
7936;DHT22;4013;49.744;8.118;2022-07-29T09:52:00;25.00;99.90
7936;DHT22;4013;49.744;8.118;2022-07-29T09:54:29;25.10;99.90
7936;DHT22;4013;49.744;8.118;2022-07-29T09:57:02;25.00;99.90
7936;DHT22;4013;49.744;8.118;2022-07-29T09:59:30;24.90;99.90
7936;DHT22;4013;49.744;8.118;2022-07-29T10:01:57;24.90;99.90
7936;DHT22;4013;49.744;8.118;2022-07-29T10:04:24;24.80;99.90
7936;DHT22;4013;49.744;8.118;2022-07-29T10:07:03;24.80;99.90
7936;DHT22;4013;49.744;8.118;2022-07-29T10:09:31;24.90;99.90
7936;DHT22;4013;49.744;8.118;2022-07-29T10:12:09;24.90;99.90
7936;DHT22;4013;49.744;8.118;2022-07-29T10:14:38;25.00;99.90
7936;DHT22;4013;49.744;8.118;2022-07-29T10:17:06;25.20;99.90
7936;DHT22;4013;49.744;8.118;2022-07-29T10:19:36;25.20;99.90
7936;DHT22;4013;49.744;8.118;2022-07-29T10:22:07;25.10;99.90
7936;DHT22;4013;49.744;8.118;2022-07-29T10:24:36;25.10;99.90
7936;DHT22;4013;49.744;8.118;2022-07-29T10:27:06;25.20;99.90
7936;DHT22;4013;49.744;8.118;2022-07-29T10:29:33;25.30;99.90
7936;DHT22;4013;49.744;8.118;2022-07-29T10:32:26;25.30;99.90
7936;DHT22;4013;49.744;8.118;2022-07-29T10:35:15;25.40;99.90
7936;DHT22;4013;49.744;8.118;2022-07-29T10:41:09;25.70;99.90
7936;DHT22;4013;49.744;8.118;2022-07-29T10:43:55;25.70;99.90
7936;DHT22;4013;49.744;8.118;2022-07-29T10:46:24;25.70;99.90
7936;DHT22;4013;49.744;8.118;2022-07-29T10:49:09;25.40;99.90
7936;DHT22;4013;49.744;8.118;2022-07-29T10:51:59;25.50;99.90
7936;DHT22;4013;49.744;8.118;2022-07-29T10:54:41;25.60;99.90
7936;DHT22;4013;49.744;8.118;2022-07-29T10:57:21;25.70;99.90
7936;DHT22;4013;49.744;8.118;2022-07-29T11:02:44;26.10;99.90
7936;DHT22;4013;49.744;8.118;2022-07-29T11:05:14;26.10;99.90
7936;DHT22;4013;49.744;8.118;2022-07-29T11:10:43;26.00;99.90
7936;DHT22;4013;49.744;8.118;2022-07-29T11:13:12;26.10;99.90
7936;DHT22;4013;49.744;8.118;2022-07-29T11:15:52;26.10;99.90
7936;DHT22;4013;49.744;8.118;2022-07-29T11:18:20;26.00;99.90
7936;DHT22;4013;49.744;8.118;2022-07-29T11:20:48;26.00;99.90
7936;DHT22;4013;49.744;8.118;2022-07-29T11:23:24;25.90;99.90
7936;DHT22;4013;49.744;8.118;2022-07-29T11:26:14;25.90;99.90
7936;DHT22;4013;49.744;8.118;2022-07-29T11:28:57;25.90;99.90
7936;DHT22;4013;49.744;8.118;2022-07-29T11:31:37;25.90;99.90
7936;DHT22;4013;49.744;8.118;2022-07-29T11:34:18;25.90;99.90
7936;DHT22;4013;49.744;8.118;2022-07-29T11:37:13;25.90;99.90
7936;DHT22;4013;49.744;8.118;2022-07-29T11:39:42;26.00;99.90
7936;DHT22;4013;49.744;8.118;2022-07-29T11:42:37;25.90;99.90
7936;DHT22;4013;49.744;8.118;2022-07-29T11:45:08;25.90;99.90
7936;DHT22;4013;49.744;8.118;2022-07-29T11:47:37;25.90;99.90
7936;DHT22;4013;49.744;8.118;2022-07-29T11:50:07;25.80;99.90
7936;DHT22;4013;49.744;8.118;2022-07-29T11:52:36;25.80;99.90
7936;DHT22;4013;49.744;8.118;2022-07-29T11:55:10;25.90;99.90
7936;DHT22;4013;49.744;8.118;2022-07-29T11:57:44;26.00;99.90
7936;DHT22;4013;49.744;8.118;2022-07-29T12:00:22;26.10;99.90
7936;DHT22;4013;49.744;8.118;2022-07-29T12:02:49;26.30;99.90
7936;DHT22;4013;49.744;8.118;2022-07-29T12:05:19;26.60;99.90
7936;DHT22;4013;49.744;8.118;2022-07-29T12:07:47;26.80;99.90
7936;DHT22;4013;49.744;8.118;2022-07-29T12:10:15;26.90;99.90
7936;DHT22;4013;49.744;8.118;2022-07-29T12:12:42;27.00;99.90
7936;DHT22;4013;49.744;8.118;2022-07-29T12:15:18;27.20;99.90
7936;DHT22;4013;49.744;8.118;2022-07-29T12:17:47;27.20;99.90
7936;DHT22;4013;49.744;8.118;2022-07-29T12:20:22;27.10;99.90
7936;DHT22;4013;49.744;8.118;2022-07-29T12:22:49;27.00;99.90
7936;DHT22;4013;49.744;8.118;2022-07-29T12:25:19;26.90;99.90
7936;DHT22;4013;49.744;8.118;2022-07-29T12:27:46;26.70;99.90
7936;DHT22;4013;49.744;8.118;2022-07-29T12:30:16;26.70;99.90
7936;DHT22;4013;49.744;8.118;2022-07-29T12:32:44;26.60;99.90
7936;DHT22;4013;49.744;8.118;2022-07-29T12:35:14;26.60;99.90
7936;DHT22;4013;49.744;8.118;2022-07-29T12:37:43;26.50;99.90
7936;DHT22;4013;49.744;8.118;2022-07-29T12:40:14;26.30;99.90
7936;DHT22;4013;49.744;8.118;2022-07-29T12:42:44;26.20;99.90
7936;DHT22;4013;49.744;8.118;2022-07-29T12:45:32;26.20;99.90
7936;DHT22;4013;49.744;8.118;2022-07-29T12:47:59;26.10;99.90
7936;DHT22;4013;49.744;8.118;2022-07-29T12:50:26;26.10;99.90
7936;DHT22;4013;49.744;8.118;2022-07-29T12:52:53;26.20;99.90
7936;DHT22;4013;49.744;8.118;2022-07-29T12:55:38;26.20;99.90
7936;DHT22;4013;49.744;8.118;2022-07-29T12:58:05;26.20;99.90
7936;DHT22;4013;49.744;8.118;2022-07-29T13:00:33;26.10;99.90
7936;DHT22;4013;49.744;8.118;2022-07-29T13:03:00;26.10;99.90
7936;DHT22;4013;49.744;8.118;2022-07-29T13:05:39;26.10;99.90
7936;DHT22;4013;49.744;8.118;2022-07-29T13:08:11;26.00;99.90
7936;DHT22;4013;49.744;8.118;2022-07-29T13:10:38;25.90;99.90
7936;DHT22;4013;49.744;8.118;2022-07-29T13:13:06;25.90;99.90
7936;DHT22;4013;49.744;8.118;2022-07-29T13:15:37;25.90;99.90
7936;DHT22;4013;49.744;8.118;2022-07-29T13:18:05;25.90;99.90
7936;DHT22;4013;49.744;8.118;2022-07-29T13:20:32;25.90;99.90
7936;DHT22;4013;49.744;8.118;2022-07-29T13:23:00;25.80;99.90
7936;DHT22;4013;49.744;8.118;2022-07-29T13:25:29;25.80;99.90
7936;DHT22;4013;49.744;8.118;2022-07-29T13:27:57;25.80;99.90
7936;DHT22;4013;49.744;8.118;2022-07-29T13:30:24;25.70;99.90
7936;DHT22;4013;49.744;8.118;2022-07-29T13:32:53;25.70;99.90
7936;DHT22;4013;49.744;8.118;2022-07-29T13:35:20;25.70;99.90
7936;DHT22;4013;49.744;8.118;2022-07-29T13:37:47;25.90;99.90
7936;DHT22;4013;49.744;8.118;2022-07-29T13:40:14;26.00;99.90
7936;DHT22;4013;49.744;8.118;2022-07-29T13:42:41;26.10;99.90
7936;DHT22;4013;49.744;8.118;2022-07-29T13:45:09;26.20;99.90
7936;DHT22;4013;49.744;8.118;2022-07-29T13:47:37;26.30;99.90
7936;DHT22;4013;49.744;8.118;2022-07-29T13:50:07;26.50;99.90
7936;DHT22;4013;49.744;8.118;2022-07-29T13:52:36;26.50;99.90
7936;DHT22;4013;49.744;8.118;2022-07-29T13:55:04;26.60;99.90
7936;DHT22;4013;49.744;8.118;2022-07-29T13:57:31;26.70;99.90
7936;DHT22;4013;49.744;8.118;2022-07-29T13:59:58;26.70;99.90
7936;DHT22;4013;49.744;8.118;2022-07-29T14:02:25;26.80;99.90
7936;DHT22;4013;49.744;8.118;2022-07-29T14:04:52;26.80;99.90
7936;DHT22;4013;49.744;8.118;2022-07-29T14:07:21;26.90;99.90
7936;DHT22;4013;49.744;8.118;2022-07-29T14:09:48;27.00;99.90
7936;DHT22;4013;49.744;8.118;2022-07-29T14:12:15;27.00;99.90
7936;DHT22;4013;49.744;8.118;2022-07-29T14:14:42;27.00;99.90
7936;DHT22;4013;49.744;8.118;2022-07-29T14:17:09;27.10;99.90
7936;DHT22;4013;49.744;8.118;2022-07-29T14:19:37;27.10;99.90
7936;DHT22;4013;49.744;8.118;2022-07-29T14:22:05;27.00;99.90
7936;DHT22;4013;49.744;8.118;2022-07-29T14:24:33;27.00;99.90
7936;DHT22;4013;49.744;8.118;2022-07-29T14:27:00;27.10;99.90
7936;DHT22;4013;49.744;8.118;2022-07-29T14:29:27;27.10;99.90
7936;DHT22;4013;49.744;8.118;2022-07-29T14:31:54;27.20;99.90
7936;DHT22;4013;49.744;8.118;2022-07-29T14:34:21;27.10;99.90
7936;DHT22;4013;49.744;8.118;2022-07-29T14:36:48;27.20;99.90
7936;DHT22;4013;49.744;8.118;2022-07-29T14:39:15;27.30;99.90
7936;DHT22;4013;49.744;8.118;2022-07-29T14:41:43;27.30;98.00
7936;DHT22;4013;49.744;8.118;2022-07-29T14:44:10;27.10;97.70
7936;DHT22;4013;49.744;8.118;2022-07-29T14:46:37;27.10;97.50
7936;DHT22;4013;49.744;8.118;2022-07-29T14:49:04;27.20;97.20
7936;DHT22;4013;49.744;8.118;2022-07-29T14:51:32;27.20;97.00
7936;DHT22;4013;49.744;8.118;2022-07-29T14:53:59;27.30;96.60
7936;DHT22;4013;49.744;8.118;2022-07-29T14:56:26;27.30;95.90
7936;DHT22;4013;49.744;8.118;2022-07-29T14:58:56;27.40;94.80
7936;DHT22;4013;49.744;8.118;2022-07-29T15:01:23;27.50;94.10
7936;DHT22;4013;49.744;8.118;2022-07-29T15:03:50;27.70;93.00
7936;DHT22;4013;49.744;8.118;2022-07-29T15:06:17;27.70;92.60
7936;DHT22;4013;49.744;8.118;2022-07-29T15:08:44;27.80;91.20
7936;DHT22;4013;49.744;8.118;2022-07-29T15:11:12;27.90;91.80
7936;DHT22;4013;49.744;8.118;2022-07-29T15:13:38;27.80;90.70
7936;DHT22;4013;49.744;8.118;2022-07-29T15:16:07;27.90;91.00
7936;DHT22;4013;49.744;8.118;2022-07-29T15:18:34;28.10;90.40
7936;DHT22;4013;49.744;8.118;2022-07-29T15:21:03;28.30;89.20
7936;DHT22;4013;49.744;8.118;2022-07-29T15:23:32;28.30;87.40
7936;DHT22;4013;49.744;8.118;2022-07-29T15:26:01;28.30;86.30
7936;DHT22;4013;49.744;8.118;2022-07-29T15:28:27;28.30;86.60
7936;DHT22;4013;49.744;8.118;2022-07-29T15:30:54;28.30;85.80
7936;DHT22;4013;49.744;8.118;2022-07-29T15:33:23;28.00;86.20
7936;DHT22;4013;49.744;8.118;2022-07-29T15:35:50;27.90;88.50
7936;DHT22;4013;49.744;8.118;2022-07-29T15:38:17;27.90;88.90
7936;DHT22;4013;49.744;8.118;2022-07-29T15:40:44;27.80;87.50
7936;DHT22;4013;49.744;8.118;2022-07-29T15:43:12;27.60;88.90
7936;DHT22;4013;49.744;8.118;2022-07-29T15:45:40;27.50;89.60
7936;DHT22;4013;49.744;8.118;2022-07-29T15:48:09;27.50;89.50
7936;DHT22;4013;49.744;8.118;2022-07-29T15:50:37;27.40;90.80
7936;DHT22;4013;49.744;8.118;2022-07-29T15:53:04;27.40;91.10
7936;DHT22;4013;49.744;8.118;2022-07-29T15:55:31;27.50;91.10
7936;DHT22;4013;49.744;8.118;2022-07-29T15:57:58;27.50;91.30
7936;DHT22;4013;49.744;8.118;2022-07-29T16:00:25;27.60;92.00
7936;DHT22;4013;49.744;8.118;2022-07-29T16:02:52;27.60;91.40
7936;DHT22;4013;49.744;8.118;2022-07-29T16:05:19;27.60;90.40
7936;DHT22;4013;49.744;8.118;2022-07-29T16:07:47;27.60;90.60
7936;DHT22;4013;49.744;8.118;2022-07-29T16:10:14;27.60;90.20
7936;DHT22;4013;49.744;8.118;2022-07-29T16:12:41;27.50;91.00
7936;DHT22;4013;49.744;8.118;2022-07-29T16:15:08;27.50;90.70
7936;DHT22;4013;49.744;8.118;2022-07-29T16:17:35;27.50;92.90
7936;DHT22;4013;49.744;8.118;2022-07-29T16:20:03;27.40;95.00
7936;DHT22;4013;49.744;8.118;2022-07-29T16:22:31;27.30;95.60
7936;DHT22;4013;49.744;8.118;2022-07-29T16:25:00;27.30;95.50